ADDS METAR Data INFO
IDs: Format: Raw Decoded Include TAF

Data at: 1752 UTC 15 Dec 2017

KPHT 151735Z AUTO 25008KT 10SM CLR 04/M05 A3015 RMK A01
KPHT 151715Z AUTO 25009KT 10SM CLR 04/M05 A3017 RMK A01
KPHT 151655Z AUTO 00000KT 10SM CLR 03/M05 A3018 RMK A01
KPHT 151635Z AUTO VRB06KT 10SM CLR 03/M05 A3019 RMK A01
KPHT 151615Z AUTO 00000KT 10SM FEW032 02/M05 A3019 RMK A01
KPHT 151555Z AUTO 00000KT 10SM BKN032 01/M06 A3020 RMK A01
KPHT 151535Z AUTO 35005KT 10SM OVC032 01/M06 A3020 RMK A01
KPHT 151515Z AUTO 32004KT 10SM OVC033 01/M06 A3019 RMK A01
KPHT 151455Z AUTO 34006KT 10SM OVC034 01/M06 A3018 RMK A01
KPHT 151435Z AUTO VRB03KT 10SM OVC034 00/M06 A3018 RMK A01
KPHT 151415Z AUTO 33006KT 10SM BKN028 OVC033 M00/M06 A3017 RMK A01
KPHT 151355Z AUTO 31005KT 10SM OVC028 M00/M06 A3017 RMK A01
KPHT 151335Z AUTO VRB05KT 10SM OVC029 M00/M05 A3016 RMK A01
KPHT 151315Z AUTO 29004KT 10SM OVC030 M00/M05 A3016 RMK A01
KPHT 151255Z AUTO 29004KT 10SM OVC030 M00/M05 A3015 RMK A01
KPHT 151235Z AUTO VRB03KT 10SM OVC031 M00/M05 A3013 RMK A01
KPHT 151215Z AUTO 00000KT 10SM OVC031 M00/M05 A3013 RMK A01
KPHT 151155Z AUTO 30004KT 10SM OVC032 M00/M05 A3012 RMK A01
KPHT 151135Z AUTO 27004KT 10SM OVC032 M00/M05 A3012 RMK A01
KPHT 151115Z AUTO 28004KT 10SM OVC032 M01/M05 A3011 RMK A01
KPHT 151055Z AUTO 00000KT 10SM OVC032 M01/M05 A3010 RMK A01
KPHT 151035Z AUTO 00000KT 10SM OVC032 M01/M05 A3010 RMK A01
KPHT 151015Z AUTO 00000KT 10SM OVC033 M00/M05 A3010 RMK A01
KPHT 150955Z AUTO 00000KT 10SM OVC033 M00/M05 A3010 RMK A01
KPHT 150935Z AUTO 00000KT 10SM OVC033 M00/M05 A3010 RMK A01
KPHT 150915Z AUTO 00000KT 10SM OVC033 M00/M05 A3010 RMK A01
KPHT 150855Z AUTO 00000KT 10SM OVC033 M00/M05 A3010 RMK A01
KPHT 150835Z AUTO 00000KT 10SM OVC035 M00/M05 A3010 RMK A01
KPHT 150815Z AUTO 00000KT 10SM OVC037 M00/M05 A3010 RMK A01
KPHT 150755Z AUTO VRB03KT 10SM OVC037 M00/M05 A3010 RMK A01
KPHT 150735Z AUTO 00000KT 10SM OVC039 M00/M05 A3010 RMK A01
KPHT 150715Z AUTO 00000KT 10SM OVC040 M00/M05 A3009 RMK A01
KPHT 150655Z AUTO 00000KT 10SM OVC041 M00/M05 A3010 RMK A01
KPHT 150635Z AUTO 00000KT 10SM OVC040 M00/M05 A3010 RMK A01
KPHT 150615Z AUTO 00000KT 10SM OVC040 M00/M05 A3011 RMK A01
KPHT 150555Z AUTO 00000KT 10SM OVC040 00/M04 A3011 RMK A01
KPHT 150535Z AUTO 00000KT 10SM OVC040 00/M05 A3011 RMK A01
KPHT 150515Z AUTO 00000KT 10SM OVC041 00/M04 A3011 RMK A01
KPHT 150455Z AUTO 00000KT 10SM OVC042 00/M04 A3011 RMK A01
KPHT 150435Z AUTO 00000KT 10SM OVC042 00/M05 A3011 RMK A01
KPHT 150415Z AUTO 00000KT 10SM OVC042 00/M04 A3011 RMK A01
KPHT 150355Z AUTO 00000KT 10SM OVC042 00/M04 A3011 RMK A01
KPHT 150335Z AUTO 00000KT 10SM OVC042 M00/M04 A3011 RMK A01
KPHT 150315Z AUTO 00000KT 10SM OVC041 M00/M04 A3011 RMK A01
KPHT 150255Z AUTO 00000KT 10SM OVC041 00/M04 A3011 RMK A01
KPHT 150235Z AUTO 00000KT 10SM OVC041 00/M05 A3010 RMK A01
KPHT 150215Z AUTO 00000KT 10SM OVC041 00/M05 A3010 RMK A01
KPHT 150155Z AUTO 00000KT 10SM OVC041 00/M05 A3009 RMK A01
KPHT 150135Z AUTO 02003KT 10SM OVC041 00/M05 A3009 RMK A01
KPHT 150115Z AUTO 35003KT 10SM OVC038 01/M05 A3009 RMK A01
KPHT 150055Z AUTO 00000KT 10SM OVC037 01/M05 A3009 RMK A01
KPHT 150035Z AUTO 35003KT 10SM OVC037 01/M05 A3008 RMK A01
KPHT 150015Z AUTO 34004KT 10SM OVC037 01/M05 A3008 RMK A01
KPHT 142350Z AUTO 35006G11KT 10SM OVC037 01/M05 A3007 RMK A01
KPHT 142335Z AUTO 34006KT 10SM OVC037 01/M05 A3007 RMK A01
KPHT 142315Z AUTO 35006KT 10SM OVC037 01/M05 A3006 RMK A01
KPHT 142255Z AUTO 36007KT 10SM OVC038 02/M05 A3005 RMK A01
KPHT 142235Z AUTO 01006KT 10SM OVC039 02/M05 A3006 RMK A01
KPHT 142215Z AUTO 36004KT 10SM OVC040 02/M04 A3006 RMK A01
KPHT 142155Z AUTO 35007KT 10SM OVC040 02/M04 A3005 RMK A01
KPHT 142135Z AUTO 36006KT 10SM OVC040 02/M04 A3005 RMK A01
KPHT 142115Z AUTO 01005KT 10SM OVC040 03/M04 A3004 RMK A01
KPHT 142055Z AUTO 02006KT 10SM BKN035 OVC040 03/M04 A3004 RMK A01
KPHT 142035Z AUTO 03005KT 10SM OVC033 03/M04 A3004 RMK A01
KPHT 142015Z AUTO 02006KT 10SM OVC032 03/M04 A3004 RMK A01
KPHT 141955Z AUTO 34005G10KT 10SM OVC033 03/M04 A3003 RMK A01
KPHT 141935Z AUTO 35007KT 10SM OVC033 03/M04 A3004 RMK A01
KPHT 141915Z AUTO VRB05KT 10SM OVC033 03/M04 A3003 RMK A01
KPHT 141855Z AUTO 36008KT 10SM OVC031 03/M04 A3003 RMK A01
KPHT 141835Z AUTO 32003KT 10SM OVC032 03/M04 A3003 RMK A01
KPHT 141815Z AUTO 35006KT 10SM OVC031 03/M04 A3003 RMK A01
KPHT 141755Z AUTO 34006KT 10SM OVC030 03/M04 A3004 RMK A01
KPHT 141735Z AUTO 01009KT 10SM OVC029 03/M04 A3004 RMK A01
KPHT 141715Z AUTO 36009KT 10SM OVC028 03/M03 A3004 RMK A01
KPHT 141655Z AUTO VRB04KT 10SM OVC029 03/M03 A3005 RMK A01
KPHT 141635Z AUTO 34005KT 10SM OVC030 03/M03 A3005 RMK A01
KPHT 141615Z AUTO 36007KT 10SM OVC029 03/M04 A3004 RMK A01
KPHT 141555Z AUTO 35008KT 10SM OVC029 03/M04 A3003 RMK A01
KPHT 141535Z AUTO 36008KT 10SM OVC030 03/M03 A3003 RMK A01
KPHT 141515Z AUTO 35008KT 310V010 10SM BKN031 03/M03 A3001 RMK A01
KPHT 141455Z AUTO 01011KT 10SM SCT031 03/M04 A3000 RMK A01
KPHT 141435Z AUTO 36006KT 10SM SCT031 02/M03 A2999 RMK A01
KPHT 141415Z AUTO 02007KT 10SM FEW032 01/M02 A2998 RMK A01
KPHT 141350Z AUTO 02005KT 10SM FEW032 01/M03 A2997 RMK A01
KPHT 141335Z AUTO 02004KT 10SM SCT031 M00/M03 A2997 RMK A01
KPHT 141315Z AUTO 00000KT 10SM SCT031 M01/M04 A2997 RMK A01
KPHT 141255Z AUTO 01003KT 10SM CLR M01/M04 A2995 RMK A01
KPHT 141235Z AUTO 36006KT 10SM BKN035 M00/M04 A2994 RMK A01
KPHT 141215Z AUTO 01006KT 10SM OVC035 M02/M04 A2993 RMK A01
KPHT 141155Z AUTO 00000KT 10SM FEW028 OVC034 M01/M03 A2994 RMK A01
KPHT 141135Z AUTO 01003KT 10SM OVC030 01/M03 A2993 RMK A01
KPHT 141115Z AUTO 01005KT 10SM OVC031 00/M03 A2991 RMK A01
KPHT 141055Z AUTO 36004KT 10SM OVC031 01/M03 A2991 RMK A01
KPHT 141035Z AUTO 35005KT 10SM BKN029 OVC034 01/M03 A2990 RMK A01
KPHT 141015Z AUTO 36005KT 10SM SCT029 BKN035 02/M03 A2989 RMK A01
KPHT 140955Z AUTO 36005KT 10SM SCT036 02/M02 A2989 RMK A01
KPHT 140935Z AUTO 36008KT 10SM SCT035 03/M02 A2988 RMK A01
KPHT 140915Z AUTO 01006KT 10SM CLR 03/M01 A2987 RMK A01
KPHT 140855Z AUTO 01004KT 10SM CLR 03/M01 A2987 RMK A01
KPHT 140835Z AUTO 01008KT 10SM CLR 04/M01 A2986 RMK A01
KPHT 140815Z AUTO 36007KT 10SM CLR 04/M01 A2985 RMK A01
KPHT 140755Z AUTO 36008KT 10SM FEW040 FEW046 04/M01 A2985 RMK A01
KPHT 140735Z AUTO 36008KT 10SM FEW034 FEW042 SCT050 05/M02 A2984 RMK A01
KPHT 140715Z AUTO 34008KT 10SM FEW050 05/M02 A2983 RMK A01
KPHT 140655Z AUTO 00000KT 10SM CLR 04/M03 A2982 RMK A01
KPHT 140635Z AUTO 26003KT 10SM FEW055 04/M03 A2980 RMK A01
KPHT 140615Z AUTO 28004KT 10SM FEW055 05/M03 A2980 RMK A01
KPHT 140555Z AUTO 24007KT 10SM SCT055 04/M03 A2979 RMK A01